sensor_id;sensor_type;location;lat;lon;timestamp;P1;durP1;ratioP1;P2;durP2;ratioP2
3081;SDS011;1551;51.046;7.010;2022-11-20T00:02:00;13.35;;;11.05;;
3081;SDS011;1551;51.046;7.010;2022-11-20T00:04:49;12.40;;;10.60;;
3081;SDS011;1551;51.046;7.010;2022-11-20T00:07:37;14.20;;;11.98;;
3081;SDS011;1551;51.046;7.010;2022-11-20T00:10:27;13.50;;;11.45;;
3081;SDS011;1551;51.046;7.010;2022-11-20T00:13:16;13.00;;;10.65;;
3081;SDS011;1551;51.046;7.010;2022-11-20T00:16:05;14.02;;;11.27;;
3081;SDS011;1551;51.046;7.010;2022-11-20T00:18:55;13.80;;;10.70;;
3081;SDS011;1551;51.046;7.010;2022-11-20T00:21:44;11.32;;;9.50;;
3081;SDS011;1551;51.046;7.010;2022-11-20T00:24:33;13.02;;;10.43;;
3081;SDS011;1551;51.046;7.010;2022-11-20T00:27:22;11.88;;;10.30;;
3081;SDS011;1551;51.046;7.010;2022-11-20T00:30:11;13.38;;;10.77;;
3081;SDS011;1551;51.046;7.010;2022-11-20T00:33:00;12.98;;;10.70;;
3081;SDS011;1551;51.046;7.010;2022-11-20T00:35:49;13.67;;;10.20;;
3081;SDS011;1551;51.046;7.010;2022-11-20T00:38:38;14.15;;;11.40;;
3081;SDS011;1551;51.046;7.010;2022-11-20T00:41:27;13.18;;;10.90;;
3081;SDS011;1551;51.046;7.010;2022-11-20T00:44:17;11.93;;;10.50;;
3081;SDS011;1551;51.046;7.010;2022-11-20T00:47:07;14.30;;;10.95;;
3081;SDS011;1551;51.046;7.010;2022-11-20T00:49:55;13.02;;;11.20;;
3081;SDS011;1551;51.046;7.010;2022-11-20T00:52:44;12.23;;;10.35;;
3081;SDS011;1551;51.046;7.010;2022-11-20T00:55:33;12.23;;;10.13;;
3081;SDS011;1551;51.046;7.010;2022-11-20T00:58:22;14.10;;;10.77;;
3081;SDS011;1551;51.046;7.010;2022-11-20T01:01:13;14.50;;;11.38;;
3081;SDS011;1551;51.046;7.010;2022-11-20T01:04:04;13.68;;;9.95;;
3081;SDS011;1551;51.046;7.010;2022-11-20T01:06:53;12.43;;;9.70;;
3081;SDS011;1551;51.046;7.010;2022-11-20T01:09:42;12.90;;;10.30;;
3081;SDS011;1551;51.046;7.010;2022-11-20T01:12:31;12.82;;;10.35;;
3081;SDS011;1551;51.046;7.010;2022-11-20T01:15:20;12.50;;;10.15;;
3081;SDS011;1551;51.046;7.010;2022-11-20T01:18:09;12.53;;;10.87;;
3081;SDS011;1551;51.046;7.010;2022-11-20T01:21:05;13.93;;;9.70;;
3081;SDS011;1551;51.046;7.010;2022-11-20T01:23:56;12.95;;;10.68;;
3081;SDS011;1551;51.046;7.010;2022-11-20T01:26:50;13.57;;;10.52;;
3081;SDS011;1551;51.046;7.010;2022-11-20T01:29:40;12.70;;;9.90;;
3081;SDS011;1551;51.046;7.010;2022-11-20T01:32:29;13.23;;;10.50;;
3081;SDS011;1551;51.046;7.010;2022-11-20T01:35:18;13.57;;;11.38;;
3081;SDS011;1551;51.046;7.010;2022-11-20T01:38:07;13.13;;;10.70;;
3081;SDS011;1551;51.046;7.010;2022-11-20T01:40:55;14.07;;;10.82;;
3081;SDS011;1551;51.046;7.010;2022-11-20T01:43:44;15.25;;;10.70;;
3081;SDS011;1551;51.046;7.010;2022-11-20T01:46:37;14.30;;;11.47;;
3081;SDS011;1551;51.046;7.010;2022-11-20T01:49:31;13.15;;;9.85;;
3081;SDS011;1551;51.046;7.010;2022-11-20T01:52:36;14.82;;;11.55;;
3081;SDS011;1551;51.046;7.010;2022-11-20T01:55:29;13.25;;;10.02;;
3081;SDS011;1551;51.046;7.010;2022-11-20T01:58:22;13.35;;;10.23;;
3081;SDS011;1551;51.046;7.010;2022-11-20T02:01:17;15.07;;;11.23;;
3081;SDS011;1551;51.046;7.010;2022-11-20T02:04:07;13.27;;;10.30;;
3081;SDS011;1551;51.046;7.010;2022-11-20T02:06:59;13.35;;;11.20;;
3081;SDS011;1551;51.046;7.010;2022-11-20T02:09:49;14.13;;;10.32;;
3081;SDS011;1551;51.046;7.010;2022-11-20T02:12:38;12.30;;;10.60;;
3081;SDS011;1551;51.046;7.010;2022-11-20T02:15:46;11.50;;;9.47;;
3081;SDS011;1551;51.046;7.010;2022-11-20T02:18:36;12.05;;;10.75;;
3081;SDS011;1551;51.046;7.010;2022-11-20T02:24:43;12.98;;;9.82;;
3081;SDS011;1551;51.046;7.010;2022-11-20T02:27:35;13.15;;;10.05;;
3081;SDS011;1551;51.046;7.010;2022-11-20T02:30:24;15.38;;;10.20;;
3081;SDS011;1551;51.046;7.010;2022-11-20T02:33:13;12.50;;;10.63;;
3081;SDS011;1551;51.046;7.010;2022-11-20T02:36:03;11.43;;;9.20;;
3081;SDS011;1551;51.046;7.010;2022-11-20T02:38:52;12.88;;;10.55;;
3081;SDS011;1551;51.046;7.010;2022-11-20T02:41:42;12.15;;;10.35;;
3081;SDS011;1551;51.046;7.010;2022-11-20T02:44:31;14.52;;;10.27;;
3081;SDS011;1551;51.046;7.010;2022-11-20T02:47:20;13.82;;;10.52;;
3081;SDS011;1551;51.046;7.010;2022-11-20T02:50:09;11.95;;;9.73;;
3081;SDS011;1551;51.046;7.010;2022-11-20T02:52:59;14.80;;;11.32;;
3081;SDS011;1551;51.046;7.010;2022-11-20T02:55:48;12.50;;;10.93;;
3081;SDS011;1551;51.046;7.010;2022-11-20T02:58:36;12.07;;;9.05;;
3081;SDS011;1551;51.046;7.010;2022-11-20T03:01:25;13.27;;;10.25;;
3081;SDS011;1551;51.046;7.010;2022-11-20T03:04:14;12.25;;;9.75;;
3081;SDS011;1551;51.046;7.010;2022-11-20T03:07:03;12.57;;;10.43;;
3081;SDS011;1551;51.046;7.010;2022-11-20T03:09:53;12.00;;;9.60;;
3081;SDS011;1551;51.046;7.010;2022-11-20T03:12:42;12.98;;;11.07;;
3081;SDS011;1551;51.046;7.010;2022-11-20T03:15:31;22.23;;;18.00;;
3081;SDS011;1551;51.046;7.010;2022-11-20T03:18:19;22.77;;;20.30;;
3081;SDS011;1551;51.046;7.010;2022-11-20T03:21:09;15.07;;;12.80;;
3081;SDS011;1551;51.046;7.010;2022-11-20T03:23:59;13.27;;;10.02;;
3081;SDS011;1551;51.046;7.010;2022-11-20T03:26:49;12.00;;;10.07;;
3081;SDS011;1551;51.046;7.010;2022-11-20T03:29:38;13.25;;;10.70;;
3081;SDS011;1551;51.046;7.010;2022-11-20T03:32:27;11.40;;;10.18;;
3081;SDS011;1551;51.046;7.010;2022-11-20T03:35:16;12.50;;;10.40;;
3081;SDS011;1551;51.046;7.010;2022-11-20T03:38:04;14.20;;;11.47;;
3081;SDS011;1551;51.046;7.010;2022-11-20T03:40:57;12.18;;;9.93;;
3081;SDS011;1551;51.046;7.010;2022-11-20T03:43:51;13.35;;;10.68;;
3081;SDS011;1551;51.046;7.010;2022-11-20T03:46:42;12.40;;;10.18;;
3081;SDS011;1551;51.046;7.010;2022-11-20T03:49:31;13.55;;;10.15;;
3081;SDS011;1551;51.046;7.010;2022-11-20T03:52:20;12.10;;;9.77;;
3081;SDS011;1551;51.046;7.010;2022-11-20T03:55:09;12.40;;;9.60;;
3081;SDS011;1551;51.046;7.010;2022-11-20T03:57:58;14.30;;;9.70;;
3081;SDS011;1551;51.046;7.010;2022-11-20T04:00:47;14.02;;;10.00;;
3081;SDS011;1551;51.046;7.010;2022-11-20T04:03:36;10.93;;;9.50;;
3081;SDS011;1551;51.046;7.010;2022-11-20T04:06:27;11.70;;;10.00;;
3081;SDS011;1551;51.046;7.010;2022-11-20T04:09:18;14.35;;;11.18;;
3081;SDS011;1551;51.046;7.010;2022-11-20T04:12:07;13.10;;;10.68;;
3081;SDS011;1551;51.046;7.010;2022-11-20T04:14:56;14.32;;;10.10;;
3081;SDS011;1551;51.046;7.010;2022-11-20T04:17:45;13.23;;;10.50;;
3081;SDS011;1551;51.046;7.010;2022-11-20T04:20:34;14.90;;;10.50;;
3081;SDS011;1551;51.046;7.010;2022-11-20T04:23:24;14.80;;;10.52;;
3081;SDS011;1551;51.046;7.010;2022-11-20T04:26:13;14.43;;;11.20;;
3081;SDS011;1551;51.046;7.010;2022-11-20T04:29:02;14.50;;;10.75;;
3081;SDS011;1551;51.046;7.010;2022-11-20T04:31:52;12.65;;;9.73;;
3081;SDS011;1551;51.046;7.010;2022-11-20T04:34:41;12.98;;;10.25;;
3081;SDS011;1551;51.046;7.010;2022-11-20T04:37:30;12.60;;;10.00;;
3081;SDS011;1551;51.046;7.010;2022-11-20T04:40:19;13.68;;;10.50;;
3081;SDS011;1551;51.046;7.010;2022-11-20T04:43:08;12.35;;;9.70;;
3081;SDS011;1551;51.046;7.010;2022-11-20T04:45:57;11.80;;;9.50;;
3081;SDS011;1551;51.046;7.010;2022-11-20T04:48:47;12.98;;;10.00;;
3081;SDS011;1551;51.046;7.010;2022-11-20T04:51:36;12.85;;;9.98;;
3081;SDS011;1551;51.046;7.010;2022-11-20T04:54:25;12.70;;;9.98;;
3081;SDS011;1551;51.046;7.010;2022-11-20T04:57:14;13.02;;;10.75;;
3081;SDS011;1551;51.046;7.010;2022-11-20T05:00:04;11.98;;;9.68;;
3081;SDS011;1551;51.046;7.010;2022-11-20T05:02:53;12.50;;;10.57;;
3081;SDS011;1551;51.046;7.010;2022-11-20T05:05:42;12.48;;;10.30;;
3081;SDS011;1551;51.046;7.010;2022-11-20T05:08:31;11.90;;;10.15;;
3081;SDS011;1551;51.046;7.010;2022-11-20T05:11:20;12.93;;;10.38;;
3081;SDS011;1551;51.046;7.010;2022-11-20T05:14:10;11.70;;;10.02;;
3081;SDS011;1551;51.046;7.010;2022-11-20T05:16:59;11.60;;;10.00;;
3081;SDS011;1551;51.046;7.010;2022-11-20T05:19:48;14.13;;;11.50;;
3081;SDS011;1551;51.046;7.010;2022-11-20T05:22:37;13.02;;;11.10;;
3081;SDS011;1551;51.046;7.010;2022-11-20T05:25:26;12.65;;;10.25;;
3081;SDS011;1551;51.046;7.010;2022-11-20T05:28:15;12.85;;;9.75;;
3081;SDS011;1551;51.046;7.010;2022-11-20T05:31:07;11.90;;;10.50;;
3081;SDS011;1551;51.046;7.010;2022-11-20T05:33:57;13.35;;;10.63;;
3081;SDS011;1551;51.046;7.010;2022-11-20T05:36:46;12.85;;;10.35;;
3081;SDS011;1551;51.046;7.010;2022-11-20T05:39:35;14.70;;;11.43;;
3081;SDS011;1551;51.046;7.010;2022-11-20T05:42:24;12.15;;;10.30;;
3081;SDS011;1551;51.046;7.010;2022-11-20T05:45:19;12.63;;;10.18;;
3081;SDS011;1551;51.046;7.010;2022-11-20T05:48:08;14.93;;;11.52;;
3081;SDS011;1551;51.046;7.010;2022-11-20T05:50:57;14.32;;;10.30;;
3081;SDS011;1551;51.046;7.010;2022-11-20T05:53:47;14.40;;;10.65;;
3081;SDS011;1551;51.046;7.010;2022-11-20T05:56:36;14.40;;;10.57;;
3081;SDS011;1551;51.046;7.010;2022-11-20T05:59:25;13.90;;;10.23;;
3081;SDS011;1551;51.046;7.010;2022-11-20T06:02:14;13.75;;;10.23;;
3081;SDS011;1551;51.046;7.010;2022-11-20T06:05:03;12.93;;;10.40;;
3081;SDS011;1551;51.046;7.010;2022-11-20T06:07:52;12.05;;;10.27;;
3081;SDS011;1551;51.046;7.010;2022-11-20T06:10:41;14.00;;;10.73;;
3081;SDS011;1551;51.046;7.010;2022-11-20T06:13:30;13.38;;;10.65;;
3081;SDS011;1551;51.046;7.010;2022-11-20T06:16:19;11.25;;;9.25;;
3081;SDS011;1551;51.046;7.010;2022-11-20T06:19:09;16.02;;;10.68;;
3081;SDS011;1551;51.046;7.010;2022-11-20T06:21:58;11.43;;;10.13;;
3081;SDS011;1551;51.046;7.010;2022-11-20T06:24:47;11.35;;;9.93;;
3081;SDS011;1551;51.046;7.010;2022-11-20T06:27:36;14.13;;;10.27;;
3081;SDS011;1551;51.046;7.010;2022-11-20T06:30:25;12.45;;;10.80;;
3081;SDS011;1551;51.046;7.010;2022-11-20T06:33:14;15.20;;;10.13;;
3081;SDS011;1551;51.046;7.010;2022-11-20T06:36:03;12.02;;;9.45;;
3081;SDS011;1551;51.046;7.010;2022-11-20T06:38:52;13.10;;;10.52;;
3081;SDS011;1551;51.046;7.010;2022-11-20T06:41:41;11.70;;;9.70;;
3081;SDS011;1551;51.046;7.010;2022-11-20T06:44:30;13.90;;;9.75;;
3081;SDS011;1551;51.046;7.010;2022-11-20T06:47:19;11.98;;;9.45;;
3081;SDS011;1551;51.046;7.010;2022-11-20T06:50:08;12.27;;;9.77;;
3081;SDS011;1551;51.046;7.010;2022-11-20T06:53:00;11.77;;;9.38;;
3081;SDS011;1551;51.046;7.010;2022-11-20T06:55:50;12.20;;;9.57;;
3081;SDS011;1551;51.046;7.010;2022-11-20T06:58:40;12.63;;;9.85;;
3081;SDS011;1551;51.046;7.010;2022-11-20T07:01:29;11.48;;;10.23;;
3081;SDS011;1551;51.046;7.010;2022-11-20T07:04:17;14.27;;;10.80;;
3081;SDS011;1551;51.046;7.010;2022-11-20T07:07:08;12.80;;;10.50;;
3081;SDS011;1551;51.046;7.010;2022-11-20T07:09:57;15.32;;;10.40;;
3081;SDS011;1551;51.046;7.010;2022-11-20T07:12:49;17.17;;;10.63;;
3081;SDS011;1551;51.046;7.010;2022-11-20T07:15:39;16.52;;;10.90;;
3081;SDS011;1551;51.046;7.010;2022-11-20T07:18:28;15.38;;;11.65;;
3081;SDS011;1551;51.046;7.010;2022-11-20T07:21:17;12.77;;;10.93;;
3081;SDS011;1551;51.046;7.010;2022-11-20T07:24:06;15.50;;;11.82;;
3081;SDS011;1551;51.046;7.010;2022-11-20T07:26:55;16.88;;;12.02;;
3081;SDS011;1551;51.046;7.010;2022-11-20T07:29:44;16.65;;;12.82;;
3081;SDS011;1551;51.046;7.010;2022-11-20T07:32:33;17.40;;;13.90;;
3081;SDS011;1551;51.046;7.010;2022-11-20T07:35:23;15.52;;;11.90;;
3081;SDS011;1551;51.046;7.010;2022-11-20T07:38:13;16.58;;;12.35;;
3081;SDS011;1551;51.046;7.010;2022-11-20T07:41:02;15.02;;;10.82;;
3081;SDS011;1551;51.046;7.010;2022-11-20T07:43:51;14.88;;;11.40;;
3081;SDS011;1551;51.046;7.010;2022-11-20T07:46:39;14.83;;;11.70;;
3081;SDS011;1551;51.046;7.010;2022-11-20T07:49:28;13.98;;;12.00;;
3081;SDS011;1551;51.046;7.010;2022-11-20T07:52:17;15.80;;;11.18;;
3081;SDS011;1551;51.046;7.010;2022-11-20T07:55:06;13.43;;;10.95;;
3081;SDS011;1551;51.046;7.010;2022-11-20T07:57:56;15.13;;;11.35;;
3081;SDS011;1551;51.046;7.010;2022-11-20T08:00:46;16.60;;;12.20;;
3081;SDS011;1551;51.046;7.010;2022-11-20T08:03:35;14.25;;;11.70;;
3081;SDS011;1551;51.046;7.010;2022-11-20T08:06:27;18.33;;;11.63;;
3081;SDS011;1551;51.046;7.010;2022-11-20T08:09:16;16.90;;;12.50;;
3081;SDS011;1551;51.046;7.010;2022-11-20T08:12:05;18.40;;;13.52;;
3081;SDS011;1551;51.046;7.010;2022-11-20T08:15:13;17.02;;;13.85;;
3081;SDS011;1551;51.046;7.010;2022-11-20T08:18:06;17.35;;;13.77;;
3081;SDS011;1551;51.046;7.010;2022-11-20T08:21:02;16.23;;;13.32;;
3081;SDS011;1551;51.046;7.010;2022-11-20T08:23:53;18.90;;;14.65;;
3081;SDS011;1551;51.046;7.010;2022-11-20T08:26:42;19.00;;;15.20;;
3081;SDS011;1551;51.046;7.010;2022-11-20T08:29:31;18.17;;;13.45;;
3081;SDS011;1551;51.046;7.010;2022-11-20T08:32:20;18.95;;;15.20;;
3081;SDS011;1551;51.046;7.010;2022-11-20T08:35:09;17.58;;;13.63;;
3081;SDS011;1551;51.046;7.010;2022-11-20T08:37:58;17.75;;;14.32;;
3081;SDS011;1551;51.046;7.010;2022-11-20T08:40:47;17.80;;;13.10;;
3081;SDS011;1551;51.046;7.010;2022-11-20T08:43:57;17.00;;;12.40;;
3081;SDS011;1551;51.046;7.010;2022-11-20T08:46:48;19.35;;;13.80;;
3081;SDS011;1551;51.046;7.010;2022-11-20T08:49:37;15.80;;;13.93;;
3081;SDS011;1551;51.046;7.010;2022-11-20T08:52:26;17.83;;;14.57;;
3081;SDS011;1551;51.046;7.010;2022-11-20T08:55:15;17.70;;;15.38;;
3081;SDS011;1551;51.046;7.010;2022-11-20T08:58:04;18.08;;;14.65;;
3081;SDS011;1551;51.046;7.010;2022-11-20T09:00:54;34.75;;;23.65;;
3081;SDS011;1551;51.046;7.010;2022-11-20T09:03:43;21.93;;;15.50;;
3081;SDS011;1551;51.046;7.010;2022-11-20T09:06:32;18.23;;;13.48;;
3081;SDS011;1551;51.046;7.010;2022-11-20T09:09:21;17.38;;;12.90;;
3081;SDS011;1551;51.046;7.010;2022-11-20T09:12:10;21.90;;;16.63;;
3081;SDS011;1551;51.046;7.010;2022-11-20T09:14:59;19.55;;;15.73;;
3081;SDS011;1551;51.046;7.010;2022-11-20T09:17:52;17.65;;;12.80;;
3081;SDS011;1551;51.046;7.010;2022-11-20T09:20:42;16.85;;;14.18;;
3081;SDS011;1551;51.046;7.010;2022-11-20T09:23:31;23.00;;;16.33;;
3081;SDS011;1551;51.046;7.010;2022-11-20T09:26:22;18.83;;;14.57;;
3081;SDS011;1551;51.046;7.010;2022-11-20T09:29:11;24.50;;;16.92;;
3081;SDS011;1551;51.046;7.010;2022-11-20T09:32:00;18.48;;;14.90;;
3081;SDS011;1551;51.046;7.010;2022-11-20T09:34:49;21.27;;;15.07;;
3081;SDS011;1551;51.046;7.010;2022-11-20T09:37:38;16.80;;;12.85;;
3081;SDS011;1551;51.046;7.010;2022-11-20T09:40:27;17.57;;;13.03;;
3081;SDS011;1551;51.046;7.010;2022-11-20T09:43:24;17.77;;;13.07;;
3081;SDS011;1551;51.046;7.010;2022-11-20T09:52:25;19.05;;;13.70;;
3081;SDS011;1551;51.046;7.010;2022-11-20T09:55:33;15.23;;;12.07;;
3081;SDS011;1551;51.046;7.010;2022-11-20T09:58:32;13.52;;;11.68;;
3081;SDS011;1551;51.046;7.010;2022-11-20T10:01:29;14.48;;;11.48;;
3081;SDS011;1551;51.046;7.010;2022-11-20T10:04:22;12.40;;;9.80;;
3081;SDS011;1551;51.046;7.010;2022-11-20T10:10:35;13.80;;;10.50;;
3081;SDS011;1551;51.046;7.010;2022-11-20T10:25:46;14.15;;;10.43;;
3081;SDS011;1551;51.046;7.010;2022-11-20T10:32:02;15.25;;;11.57;;
3081;SDS011;1551;51.046;7.010;2022-11-20T10:35:00;16.30;;;12.23;;
3081;SDS011;1551;51.046;7.010;2022-11-20T10:38:09;16.95;;;12.20;;
3081;SDS011;1551;51.046;7.010;2022-11-20T10:41:05;14.70;;;12.13;;
3081;SDS011;1551;51.046;7.010;2022-11-20T10:44:20;17.52;;;13.63;;
3081;SDS011;1551;51.046;7.010;2022-11-20T10:47:30;16.15;;;13.00;;
3081;SDS011;1551;51.046;7.010;2022-11-20T10:50:20;17.48;;;13.30;;
3081;SDS011;1551;51.046;7.010;2022-11-20T10:56:26;17.17;;;13.13;;
3081;SDS011;1551;51.046;7.010;2022-11-20T10:59:28;15.35;;;12.23;;
3081;SDS011;1551;51.046;7.010;2022-11-20T11:05:38;15.70;;;13.15;;
3081;SDS011;1551;51.046;7.010;2022-11-20T11:08:35;16.52;;;12.00;;
3081;SDS011;1551;51.046;7.010;2022-11-20T11:11:30;14.77;;;11.75;;
3081;SDS011;1551;51.046;7.010;2022-11-20T11:14:22;15.73;;;12.23;;
3081;SDS011;1551;51.046;7.010;2022-11-20T11:17:26;16.60;;;12.80;;
3081;SDS011;1551;51.046;7.010;2022-11-20T11:20:18;15.98;;;12.13;;
3081;SDS011;1551;51.046;7.010;2022-11-20T11:23:29;15.32;;;12.63;;
3081;SDS011;1551;51.046;7.010;2022-11-20T11:26:23;16.15;;;12.85;;
3081;SDS011;1551;51.046;7.010;2022-11-20T11:29:15;18.27;;;13.43;;
3081;SDS011;1551;51.046;7.010;2022-11-20T11:32:28;15.05;;;11.82;;
3081;SDS011;1551;51.046;7.010;2022-11-20T11:35:20;15.30;;;12.32;;
3081;SDS011;1551;51.046;7.010;2022-11-20T11:38:21;16.00;;;12.10;;
3081;SDS011;1551;51.046;7.010;2022-11-20T11:41:34;19.70;;;12.90;;
3081;SDS011;1551;51.046;7.010;2022-11-20T11:47:44;16.65;;;13.88;;
3081;SDS011;1551;51.046;7.010;2022-11-20T11:50:36;18.03;;;13.50;;
3081;SDS011;1551;51.046;7.010;2022-11-20T11:53:25;17.80;;;14.25;;
3081;SDS011;1551;51.046;7.010;2022-11-20T11:56:16;17.38;;;13.40;;
3081;SDS011;1551;51.046;7.010;2022-11-20T11:59:05;16.73;;;13.20;;
3081;SDS011;1551;51.046;7.010;2022-11-20T12:02:01;18.05;;;13.20;;
3081;SDS011;1551;51.046;7.010;2022-11-20T12:08:16;14.52;;;12.32;;
3081;SDS011;1551;51.046;7.010;2022-11-20T12:11:32;17.98;;;14.30;;
3081;SDS011;1551;51.046;7.010;2022-11-20T12:14:26;19.10;;;13.50;;
3081;SDS011;1551;51.046;7.010;2022-11-20T12:17:22;15.73;;;13.10;;
3081;SDS011;1551;51.046;7.010;2022-11-20T12:20:12;16.25;;;13.77;;
3081;SDS011;1551;51.046;7.010;2022-11-20T12:23:23;17.73;;;13.80;;
3081;SDS011;1551;51.046;7.010;2022-11-20T12:26:39;16.73;;;12.75;;
3081;SDS011;1551;51.046;7.010;2022-11-20T12:29:51;16.33;;;13.00;;
3081;SDS011;1551;51.046;7.010;2022-11-20T12:33:00;17.90;;;13.55;;
3081;SDS011;1551;51.046;7.010;2022-11-20T12:36:20;17.53;;;13.30;;
3081;SDS011;1551;51.046;7.010;2022-11-20T12:39:22;18.58;;;13.73;;
3081;SDS011;1551;51.046;7.010;2022-11-20T12:45:54;16.77;;;12.15;;
3081;SDS011;1551;51.046;7.010;2022-11-20T12:49:09;24.40;;;16.52;;
3081;SDS011;1551;51.046;7.010;2022-11-20T13:01:25;14.73;;;12.55;;
3081;SDS011;1551;51.046;7.010;2022-11-20T13:07:32;17.60;;;13.93;;
3081;SDS011;1551;51.046;7.010;2022-11-20T13:10:31;16.70;;;12.77;;
3081;SDS011;1551;51.046;7.010;2022-11-20T13:19:54;18.23;;;12.50;;
3081;SDS011;1551;51.046;7.010;2022-11-20T13:22:45;17.40;;;13.68;;
3081;SDS011;1551;51.046;7.010;2022-11-20T13:25:43;19.85;;;13.25;;
3081;SDS011;1551;51.046;7.010;2022-11-20T13:28:32;18.20;;;13.80;;
3081;SDS011;1551;51.046;7.010;2022-11-20T13:31:28;17.27;;;12.52;;
3081;SDS011;1551;51.046;7.010;2022-11-20T13:34:23;19.40;;;13.13;;
3081;SDS011;1551;51.046;7.010;2022-11-20T13:37:23;17.92;;;12.80;;
3081;SDS011;1551;51.046;7.010;2022-11-20T13:40:20;17.90;;;12.90;;
3081;SDS011;1551;51.046;7.010;2022-11-20T13:43:15;18.15;;;13.13;;
3081;SDS011;1551;51.046;7.010;2022-11-20T13:46:07;16.58;;;12.85;;
3081;SDS011;1551;51.046;7.010;2022-11-20T13:48:58;15.70;;;11.98;;
3081;SDS011;1551;51.046;7.010;2022-11-20T13:52:07;16.50;;;12.73;;
3081;SDS011;1551;51.046;7.010;2022-11-20T13:58:24;17.10;;;12.80;;
3081;SDS011;1551;51.046;7.010;2022-11-20T14:01:24;18.13;;;13.30;;
3081;SDS011;1551;51.046;7.010;2022-11-20T14:04:19;17.38;;;12.13;;
3081;SDS011;1551;51.046;7.010;2022-11-20T14:07:16;15.80;;;11.75;;
3081;SDS011;1551;51.046;7.010;2022-11-20T14:10:18;15.30;;;12.30;;
3081;SDS011;1551;51.046;7.010;2022-11-20T14:13:10;17.00;;;11.80;;
3081;SDS011;1551;51.046;7.010;2022-11-20T14:16:09;16.23;;;11.98;;
3081;SDS011;1551;51.046;7.010;2022-11-20T14:19:08;17.35;;;12.75;;
3081;SDS011;1551;51.046;7.010;2022-11-20T14:22:25;15.57;;;12.60;;
3081;SDS011;1551;51.046;7.010;2022-11-20T14:28:04;16.30;;;12.40;;
3081;SDS011;1551;51.046;7.010;2022-11-20T14:30:53;15.77;;;12.73;;
3081;SDS011;1551;51.046;7.010;2022-11-20T14:33:43;16.33;;;12.45;;
3081;SDS011;1551;51.046;7.010;2022-11-20T14:36:32;17.58;;;13.05;;
3081;SDS011;1551;51.046;7.010;2022-11-20T14:39:21;18.10;;;12.90;;
3081;SDS011;1551;51.046;7.010;2022-11-20T14:42:15;17.23;;;12.40;;
3081;SDS011;1551;51.046;7.010;2022-11-20T14:45:12;16.00;;;12.07;;
3081;SDS011;1551;51.046;7.010;2022-11-20T14:48:02;17.52;;;13.27;;
3081;SDS011;1551;51.046;7.010;2022-11-20T14:50:52;18.25;;;13.02;;
3081;SDS011;1551;51.046;7.010;2022-11-20T14:53:41;16.17;;;12.57;;
3081;SDS011;1551;51.046;7.010;2022-11-20T14:56:29;15.95;;;12.38;;
3081;SDS011;1551;51.046;7.010;2022-11-20T14:59:22;18.70;;;13.23;;
3081;SDS011;1551;51.046;7.010;2022-11-20T15:02:13;17.95;;;12.88;;
3081;SDS011;1551;51.046;7.010;2022-11-20T15:05:02;16.98;;;12.07;;
3081;SDS011;1551;51.046;7.010;2022-11-20T15:08:05;17.65;;;13.45;;
3081;SDS011;1551;51.046;7.010;2022-11-20T15:10:56;16.38;;;12.73;;
3081;SDS011;1551;51.046;7.010;2022-11-20T15:13:46;17.60;;;12.90;;
3081;SDS011;1551;51.046;7.010;2022-11-20T15:16:35;16.15;;;12.60;;
3081;SDS011;1551;51.046;7.010;2022-11-20T15:19:24;16.88;;;12.88;;
3081;SDS011;1551;51.046;7.010;2022-11-20T15:22:15;17.90;;;12.87;;
3081;SDS011;1551;51.046;7.010;2022-11-20T15:25:11;15.98;;;11.77;;
3081;SDS011;1551;51.046;7.010;2022-11-20T15:28:01;17.17;;;13.48;;
3081;SDS011;1551;51.046;7.010;2022-11-20T15:30:50;16.00;;;12.52;;
3081;SDS011;1551;51.046;7.010;2022-11-20T15:33:39;17.65;;;12.40;;
3081;SDS011;1551;51.046;7.010;2022-11-20T15:36:28;14.70;;;11.43;;
3081;SDS011;1551;51.046;7.010;2022-11-20T15:39:17;21.88;;;17.60;;
3081;SDS011;1551;51.046;7.010;2022-11-20T15:42:06;16.30;;;12.47;;
3081;SDS011;1551;51.046;7.010;2022-11-20T15:44:55;16.83;;;13.20;;
3081;SDS011;1551;51.046;7.010;2022-11-20T15:47:44;15.88;;;12.98;;
3081;SDS011;1551;51.046;7.010;2022-11-20T15:50:37;17.05;;;11.65;;
3081;SDS011;1551;51.046;7.010;2022-11-20T15:53:27;18.02;;;11.90;;
3081;SDS011;1551;51.046;7.010;2022-11-20T15:56:17;14.63;;;11.73;;
3081;SDS011;1551;51.046;7.010;2022-11-20T15:59:06;17.33;;;12.32;;
3081;SDS011;1551;51.046;7.010;2022-11-20T16:01:56;16.10;;;11.63;;
3081;SDS011;1551;51.046;7.010;2022-11-20T16:04:45;15.43;;;12.77;;
3081;SDS011;1551;51.046;7.010;2022-11-20T16:07:34;15.05;;;11.70;;
3081;SDS011;1551;51.046;7.010;2022-11-20T16:10:23;14.43;;;11.43;;
3081;SDS011;1551;51.046;7.010;2022-11-20T16:13:13;18.60;;;12.23;;
3081;SDS011;1551;51.046;7.010;2022-11-20T16:16:25;15.93;;;11.35;;
3081;SDS011;1551;51.046;7.010;2022-11-20T16:19:17;15.35;;;11.70;;
3081;SDS011;1551;51.046;7.010;2022-11-20T16:22:09;15.10;;;12.38;;
3081;SDS011;1551;51.046;7.010;2022-11-20T16:24:59;18.40;;;13.70;;
3081;SDS011;1551;51.046;7.010;2022-11-20T16:27:48;17.85;;;12.20;;
3081;SDS011;1551;51.046;7.010;2022-11-20T16:30:38;15.85;;;11.63;;
3081;SDS011;1551;51.046;7.010;2022-11-20T16:33:28;14.20;;;10.82;;
3081;SDS011;1551;51.046;7.010;2022-11-20T16:36:17;14.60;;;11.43;;
3081;SDS011;1551;51.046;7.010;2022-11-20T16:39:07;15.95;;;12.75;;
3081;SDS011;1551;51.046;7.010;2022-11-20T16:41:57;17.08;;;11.90;;
3081;SDS011;1551;51.046;7.010;2022-11-20T16:44:46;15.85;;;12.30;;
3081;SDS011;1551;51.046;7.010;2022-11-20T16:47:35;16.07;;;12.20;;
3081;SDS011;1551;51.046;7.010;2022-11-20T16:50:24;14.00;;;10.77;;
3081;SDS011;1551;51.046;7.010;2022-11-20T16:53:13;16.30;;;10.82;;
3081;SDS011;1551;51.046;7.010;2022-11-20T16:56:10;15.67;;;10.70;;
3081;SDS011;1551;51.046;7.010;2022-11-20T16:59:02;18.40;;;12.23;;
3081;SDS011;1551;51.046;7.010;2022-11-20T17:01:51;15.40;;;11.40;;
3081;SDS011;1551;51.046;7.010;2022-11-20T17:04:40;13.43;;;10.10;;
3081;SDS011;1551;51.046;7.010;2022-11-20T17:07:29;13.00;;;9.95;;
3081;SDS011;1551;51.046;7.010;2022-11-20T17:10:18;12.75;;;9.80;;
3081;SDS011;1551;51.046;7.010;2022-11-20T17:13:07;13.90;;;10.38;;
3081;SDS011;1551;51.046;7.010;2022-11-20T17:15:59;10.30;;;7.93;;
3081;SDS011;1551;51.046;7.010;2022-11-20T17:18:53;13.13;;;9.60;;
3081;SDS011;1551;51.046;7.010;2022-11-20T17:21:43;11.77;;;9.10;;
3081;SDS011;1551;51.046;7.010;2022-11-20T17:24:32;10.95;;;7.65;;
3081;SDS011;1551;51.046;7.010;2022-11-20T17:27:21;8.98;;;6.55;;
3081;SDS011;1551;51.046;7.010;2022-11-20T17:30:11;10.38;;;7.15;;
3081;SDS011;1551;51.046;7.010;2022-11-20T17:33:00;8.35;;;6.65;;
3081;SDS011;1551;51.046;7.010;2022-11-20T17:35:49;7.95;;;5.65;;
3081;SDS011;1551;51.046;7.010;2022-11-20T17:38:38;11.18;;;6.80;;
3081;SDS011;1551;51.046;7.010;2022-11-20T17:41:28;9.65;;;5.88;;
3081;SDS011;1551;51.046;7.010;2022-11-20T17:44:17;9.23;;;6.38;;
3081;SDS011;1551;51.046;7.010;2022-11-20T17:47:06;8.50;;;5.32;;
3081;SDS011;1551;51.046;7.010;2022-11-20T17:49:56;7.82;;;5.13;;
3081;SDS011;1551;51.046;7.010;2022-11-20T17:52:44;6.83;;;4.47;;
3081;SDS011;1551;51.046;7.010;2022-11-20T17:55:33;6.22;;;4.60;;
3081;SDS011;1551;51.046;7.010;2022-11-20T17:58:42;5.20;;;4.07;;
3081;SDS011;1551;51.046;7.010;2022-11-20T18:01:32;6.40;;;3.35;;
3081;SDS011;1551;51.046;7.010;2022-11-20T18:04:21;6.25;;;4.50;;
3081;SDS011;1551;51.046;7.010;2022-11-20T18:07:10;5.30;;;3.53;;
3081;SDS011;1551;51.046;7.010;2022-11-20T18:09:59;7.60;;;5.10;;
3081;SDS011;1551;51.046;7.010;2022-11-20T18:12:47;6.43;;;4.53;;
3081;SDS011;1551;51.046;7.010;2022-11-20T18:15:36;5.68;;;4.00;;
3081;SDS011;1551;51.046;7.010;2022-11-20T18:18:25;5.00;;;3.70;;
3081;SDS011;1551;51.046;7.010;2022-11-20T18:21:14;5.68;;;3.00;;
3081;SDS011;1551;51.046;7.010;2022-11-20T18:24:04;4.88;;;3.10;;
3081;SDS011;1551;51.046;7.010;2022-11-20T18:26:53;7.77;;;3.60;;
3081;SDS011;1551;51.046;7.010;2022-11-20T18:29:44;4.70;;;3.70;;